Spar Draco — LAFO6 — position and weather

sailwx.info

Track history (hours):
 
Tides and Currents Weather Stations Pressure Air Temp Water Temp Dewpoint Dewpoint Depression Visibility Wind Speed Wind Dir Waves Ship Positions

Spar Draco

Last reported at 2014-Nov-08 15:33 UTC. Time now 2014-Nov-26 06:32 UTC.
Position S 09°27' E 131°55'.
Warning: this ship's position is 17 days out of date.

Length 190 m; draft 8 m.

Type: Cargo ship. MMSI: 257799000.

Date/timePositionNaut miles runAvg speedWind from/ knotsBaromVisibWave heightAir tempDewpointWater temp
2014-Nov-08 15:33S 09°27' E 131°55'1713.4
2014-Nov-08 14:17S 09°23' E 131°38'  
2014-Nov-02 07:16N 01°14' E 104°00'1011.1
2014-Nov-02 06:24N 01°11' E 103°51'2 0.6
2014-Nov-02 03:04N 01°13' E 103°50'4 8.2
2014-Nov-02 02:33N 01°14' E 103°54'4 1.5
2014-Nov-01 23:29N 01°17' E 103°57'0 0.0
2014-Nov-01 20:29N 01°17' E 103°57'0 0.1
2014-Nov-01 19:29N 01°17' E 103°57'0 0.1
2014-Nov-01 18:14N 01°17' E 103°57'0 0.1
2014-Nov-01 17:32N 01°17' E 103°58'0 0.1
2014-Nov-01 16:22N 01°17' E 103°57'0 0.0
2014-Nov-01 14:10N 01°17' E 103°57'0 0.1
2014-Nov-01 13:22N 01°17' E 103°58'0 0.1
2014-Nov-01 12:25N 01°17' E 103°57'0 0.0
2014-Nov-01 11:31N 01°17' E 103°57'1 0.6
2014-Nov-01 10:34N 01°17' E 103°58'5 5.1
2014-Nov-01 09:33N 01°17' E 104°03'7 6.7
2014-Nov-01 08:32N 01°23' E 104°01'  
Track history (hours):
 
Tides and Currents Weather Stations Pressure Air Temp Water Temp Dewpoint Dewpoint Depression Visibility Wind Speed Wind Dir Waves Ship Positions

Spar Draco

Last reported at 2014-Nov-08 15:33 UTC. Time now 2014-Nov-26 06:32 UTC.
Position S 09°27' E 131°55'.
Warning: this ship's position is 17 days out of date.

Length 190 m; draft 8 m.

Type: Cargo ship. MMSI: 257799000.

Date/timePositionNaut miles runAvg speedWind from/ knotsBaromVisibWave heightAir tempDewpointWater temp
2014-Nov-08 15:33S 09°27' E 131°55'1713.4
2014-Nov-08 14:17S 09°23' E 131°38'  
2014-Nov-02 07:16N 01°14' E 104°00'1011.1
2014-Nov-02 06:24N 01°11' E 103°51'2 0.6
2014-Nov-02 03:04N 01°13' E 103°50'4 8.2
2014-Nov-02 02:33N 01°14' E 103°54'4 1.5
2014-Nov-01 23:29N 01°17' E 103°57'0 0.0
2014-Nov-01 20:29N 01°17' E 103°57'0 0.1
2014-Nov-01 19:29N 01°17' E 103°57'0 0.1
2014-Nov-01 18:14N 01°17' E 103°57'0 0.1
2014-Nov-01 17:32N 01°17' E 103°58'0 0.1
2014-Nov-01 16:22N 01°17' E 103°57'0 0.0
2014-Nov-01 14:10N 01°17' E 103°57'0 0.1
2014-Nov-01 13:22N 01°17' E 103°58'0 0.1
2014-Nov-01 12:25N 01°17' E 103°57'0 0.0
2014-Nov-01 11:31N 01°17' E 103°57'1 0.6
2014-Nov-01 10:34N 01°17' E 103°58'5 5.1
2014-Nov-01 09:33N 01°17' E 104°03'7 6.7
2014-Nov-01 08:32N 01°23' E 104°01'  

Dump ship's entire track history